Marshall, WA (99020)

6:53 PM PDT on July 27, 2016 (GMT -0700)
Paradise Plains | | Change Station

Elev 2343 ft 47.56 °N, 117.44 °W | Updated 2 minutes ago

Scattered Clouds
Scattered Clouds
92.5 °F
Feels Like 90 °F
N
3.1
Wind Variable Wind from NNW
Gusts 6.7 mph

Today
High -- | Low -- °F
--% Chance of Precip.
Yesterday
High -- | Low -- °F
Precip. -- in
Pressure 29.96 in
Visibility 10.0 miles
Clouds Few 10000 ft
Scattered Clouds 27000 ft
Heat Index 90 °F
Dew Point 52 °F
Humidity 26%
Rainfall 0.00 in
Snow Depth Not available.
5:22 AM 8:30 PM
Last Quarter, 37% visible
METAR KGEG 280053Z 33004KT 10SM FEW100 SCT270 32/07 A3001 RMK AO2 SLP144 LTG DSNT NW CB DSNT NW TCU DSNT NE-SE T03220067
Pressure 29.96 in
Visibility 10.0 miles
Clouds Few 10000 ft
Scattered Clouds 27000 ft
Heat Index 90 °F
Dew Point 52 °F
Humidity 26%
Rainfall 0.00 in
Snow Depth Not available.
5:22 AM 8:30 PM
Last Quarter, 37% visible
METAR KGEG 280053Z 33004KT 10SM FEW100 SCT270 32/07 A3001 RMK AO2 SLP144 LTG DSNT NW CB DSNT NW TCU DSNT NE-SE T03220067

10-Day Weather Forecast

Almanac

Astronomy

Jul. 27, 2016 Rise Set
Actual Time
Civil Twilight
Nautical Twilight
Astronomical Twilight
Moon
Length of Visible Light
Length of Day
Tomorrow will be .
, % of the Moon is Illuminated

Today's Extremes

State Highs State Lows

Community

WunderPhotos

Upload Photos

1,928,005 photos uploaded!

WunderBlog® & News

Nearby

Air Quality

  Air Quality AQ Index Pollutant
Not available.

Snow Depth

Station Depth Elevation

Earthquake Activity

City Distance Mag. Time & Date
Minimum magnitude displayed is 2.5.

Coastal Water Temperatures

Place Temperature

Stations

Nearby Weather Stations

Station Location Temp. Windchill Dew Point Humidity Wind Precip. Elev Updated Type
                   

Watches & Warnings

There are currently no watches in effect.